createdAt,value
2023-01-25T00:02:08.474Z,74.96
2023-01-25T00:04:35.451Z,75.21
2023-01-25T00:07:02.427Z,74.91
2023-01-25T00:09:29.325Z,74.92
2023-01-25T00:11:58.237Z,74.92
2023-01-25T00:14:25.288Z,75.06
2023-01-25T00:16:52.247Z,75.07
2023-01-25T00:19:19.490Z,75.07
2023-01-25T00:21:46.508Z,75.14
2023-01-25T00:24:14.678Z,75.22
2023-01-25T00:26:44.179Z,75.36
2023-01-25T00:29:14.668Z,75.34
2023-01-25T00:31:44.973Z,75.14
2023-01-25T00:34:24.591Z,75.24
2023-01-25T00:37:11.529Z,75.44
2023-01-25T00:39:40.439Z,75.46
2023-01-25T00:42:14.890Z,75.56
2023-01-25T00:44:44.945Z,75.19
2023-01-25T00:47:12.746Z,75.64
2023-01-25T00:49:40.940Z,75.59
2023-01-25T00:52:08.224Z,75.66
2023-01-25T00:54:35.506Z,75.59
2023-01-25T00:57:02.965Z,75.31
2023-01-25T00:59:30.106Z,75.77
2023-01-25T01:01:57.377Z,75.70
2023-01-25T01:04:25.363Z,75.97
2023-01-25T01:06:53.933Z,75.79
2023-01-25T01:09:22.302Z,75.81
2023-01-25T01:11:51.845Z,75.56
2023-01-25T01:14:19.270Z,75.73
2023-01-25T01:16:46.409Z,75.79
2023-01-25T01:19:14.022Z,75.75
2023-01-25T01:21:40.922Z,75.79
2023-01-25T01:24:10.263Z,75.61
2023-01-25T01:26:37.428Z,75.88
2023-01-25T01:29:04.788Z,76.01
2023-01-25T01:31:32.003Z,76.08
2023-01-25T01:34:17.889Z,75.73
2023-01-25T01:36:45.264Z,75.69
2023-01-25T01:39:12.138Z,75.74
2023-01-25T01:41:39.229Z,76.21
2023-01-25T01:44:20.553Z,76.14
2023-01-25T01:46:55.230Z,76.13
2023-01-25T01:49:26.371Z,75.50
2023-01-25T01:52:04.409Z,76.17
2023-01-25T01:54:59.336Z,76.25
2023-01-25T01:57:36.762Z,75.86
2023-01-25T02:00:33.090Z,76.31
2023-01-25T02:03:01.756Z,75.90
2023-01-25T02:05:51.443Z,76.12
2023-01-25T02:08:19.028Z,76.42
2023-01-25T02:10:46.605Z,76.20
2023-01-25T02:13:13.729Z,76.27
2023-01-25T02:15:50.249Z,76.41
2023-01-25T02:18:18.384Z,76.36
2023-01-25T02:20:47.426Z,76.21
2023-01-25T02:23:48.241Z,75.95
2023-01-25T02:26:15.925Z,75.99
2023-01-25T02:28:59.608Z,75.80
2023-01-25T02:31:26.862Z,76.16
2023-01-25T02:33:54.281Z,76.31
2023-01-25T02:36:30.209Z,76.10
2023-01-25T02:39:04.866Z,76.48
2023-01-25T02:41:35.045Z,76.49
2023-01-25T02:44:05.490Z,76.33
2023-01-25T02:46:36.217Z,76.35
2023-01-25T02:49:04.666Z,76.48
2023-01-25T02:51:34.374Z,76.00
2023-01-25T02:54:02.529Z,76.31
2023-01-25T02:56:29.805Z,76.14
2023-01-25T02:58:56.965Z,76.29
2023-01-25T03:01:24.268Z,76.60
2023-01-25T03:03:51.383Z,76.90
2023-01-25T03:06:19.499Z,76.72
2023-01-25T03:08:47.367Z,76.09
2023-01-25T03:11:15.064Z,76.25
2023-01-25T03:13:43.946Z,76.20
2023-01-25T03:16:12.737Z,76.20
2023-01-25T03:18:42.029Z,76.31
2023-01-25T03:21:12.135Z,76.69
2023-01-25T03:23:39.932Z,76.45
2023-01-25T03:26:19.878Z,76.31
2023-01-25T03:29:07.096Z,76.55
2023-01-25T03:31:37.789Z,76.34
2023-01-25T03:34:05.000Z,76.71
2023-01-25T03:36:36.339Z,76.54
2023-01-25T03:39:03.791Z,76.47
2023-01-25T03:41:30.666Z,76.65
2023-01-25T03:43:59.815Z,76.33
2023-01-25T03:46:27.800Z,76.78
2023-01-25T03:48:55.009Z,76.54
2023-01-25T03:51:22.214Z,76.40
2023-01-25T03:53:49.172Z,76.81
2023-01-25T03:56:20.374Z,76.75
2023-01-25T03:59:04.092Z,76.56
2023-01-25T04:01:32.244Z,76.26
2023-01-25T04:03:59.885Z,76.31
2023-01-25T04:06:28.187Z,76.59
2023-01-25T04:08:55.820Z,76.44
2023-01-25T04:11:25.672Z,76.60
2023-01-25T04:13:52.732Z,76.12
2023-01-25T04:16:21.705Z,76.54
2023-01-25T04:19:14.466Z,76.63
2023-01-25T04:21:42.026Z,76.38
2023-01-25T04:24:09.139Z,76.41
2023-01-25T04:26:39.349Z,76.58
2023-01-25T04:29:06.890Z,76.43
2023-01-25T04:31:34.541Z,76.34
2023-01-25T04:34:01.712Z,76.62
2023-01-25T04:36:28.967Z,76.89
2023-01-25T04:38:56.208Z,76.51
2023-01-25T04:41:26.991Z,76.50
2023-01-25T04:43:55.023Z,77.03
2023-01-25T04:46:22.648Z,76.77
2023-01-25T04:48:49.785Z,76.88
2023-01-25T04:51:18.029Z,76.68
2023-01-25T04:53:45.245Z,76.40
2023-01-25T04:56:12.606Z,76.44
2023-01-25T04:58:53.056Z,76.66
2023-01-25T05:01:20.267Z,76.69
2023-01-25T05:03:47.268Z,76.98
2023-01-25T05:06:30.367Z,76.46
2023-01-25T05:08:57.780Z,77.27
2023-01-25T05:11:25.348Z,76.88
2023-01-25T05:14:01.515Z,76.88
2023-01-25T05:16:32.325Z,76.61
2023-01-25T05:19:00.139Z,76.80
2023-01-25T05:22:00.985Z,76.73
2023-01-25T05:24:34.010Z,76.83
2023-01-25T05:27:04.944Z,76.85
2023-01-25T05:29:52.126Z,77.07
2023-01-25T05:32:23.194Z,76.72
2023-01-25T05:34:50.606Z,77.24
2023-01-25T05:37:21.121Z,77.34
2023-01-25T05:39:54.532Z,77.33
2023-01-25T05:42:21.647Z,76.99
2023-01-25T05:44:48.665Z,77.18
2023-01-25T05:47:17.939Z,77.42
2023-01-25T05:49:45.241Z,76.95
2023-01-25T05:52:19.697Z,77.47
2023-01-25T05:54:46.847Z,77.45
2023-01-25T05:57:16.088Z,77.43
2023-01-25T05:59:43.276Z,77.30
2023-01-25T06:02:12.493Z,76.90
2023-01-25T06:04:40.985Z,77.38
2023-01-25T06:07:09.784Z,77.32
2023-01-25T06:09:37.407Z,77.03
2023-01-25T06:12:06.529Z,77.13
2023-01-25T06:14:33.875Z,77.26
2023-01-25T06:17:02.747Z,77.60
2023-01-25T06:19:48.045Z,77.37
2023-01-25T06:22:35.899Z,77.65
2023-01-25T06:25:03.001Z,77.35
2023-01-25T06:27:29.994Z,77.27
2023-01-25T06:29:56.997Z,77.27
2023-01-25T06:32:26.098Z,77.78
2023-01-25T06:34:53.355Z,77.55
2023-01-25T06:37:23.082Z,77.74
2023-01-25T06:39:50.410Z,77.76
2023-01-25T06:42:17.328Z,77.79
2023-01-25T06:44:44.307Z,77.56
2023-01-25T06:47:12.550Z,77.65
2023-01-25T06:49:39.547Z,77.78
2023-01-25T06:52:06.443Z,77.59
2023-01-25T06:54:34.210Z,78.01
2023-01-25T06:57:01.176Z,77.70
2023-01-25T06:59:28.235Z,77.91
2023-01-25T07:01:55.338Z,77.75
2023-01-25T07:04:22.437Z,77.90
2023-01-25T07:06:49.486Z,77.93
2023-01-25T07:09:16.485Z,77.74
2023-01-25T07:11:43.574Z,78.09
2023-01-25T07:14:10.550Z,78.05
2023-01-25T07:16:38.621Z,77.74
2023-01-25T07:19:07.352Z,77.97
2023-01-25T07:21:34.733Z,77.73
2023-01-25T07:24:03.313Z,78.25
2023-01-25T07:26:30.673Z,78.20
2023-01-25T07:28:59.215Z,78.35
2023-01-25T07:31:26.994Z,78.12
2023-01-25T07:33:55.765Z,78.03
2023-01-25T07:36:23.407Z,78.43
2023-01-25T07:38:53.618Z,78.39
2023-01-25T07:41:21.084Z,78.03
2023-01-25T07:43:48.782Z,78.04
2023-01-25T07:46:28.076Z,78.41
2023-01-25T07:48:55.135Z,77.72
2023-01-25T07:51:23.406Z,78.00
2023-01-25T07:53:54.172Z,78.01
2023-01-25T07:56:23.374Z,78.30
2023-01-25T07:58:52.703Z,78.00
2023-01-25T08:01:21.513Z,78.21
2023-01-25T08:03:49.527Z,78.50
2023-01-25T08:06:17.157Z,78.22
2023-01-25T08:08:49.712Z,78.44
2023-01-25T08:11:20.394Z,78.35
2023-01-25T08:13:49.867Z,78.18
2023-01-25T08:16:18.544Z,78.19
2023-01-25T08:18:50.044Z,78.09
2023-01-25T08:21:17.673Z,78.17
2023-01-25T08:23:45.097Z,78.36
2023-01-25T08:26:13.970Z,78.34
2023-01-25T08:28:41.192Z,78.36
2023-01-25T08:31:13.089Z,78.48
2023-01-25T08:33:40.851Z,78.19
2023-01-25T08:36:09.632Z,78.34
2023-01-25T08:38:37.558Z,78.03
2023-01-25T08:41:08.343Z,78.11
2023-01-25T08:43:35.763Z,78.11
2023-01-25T08:46:03.173Z,78.05
2023-01-25T08:48:30.369Z,78.20
2023-01-25T08:50:58.186Z,78.00
2023-01-25T08:53:25.221Z,78.20
2023-01-25T08:55:52.202Z,78.15
2023-01-25T08:58:21.975Z,78.38
2023-01-25T09:00:49.637Z,78.10
2023-01-25T09:03:18.371Z,78.07
2023-01-25T09:05:45.410Z,78.29
2023-01-25T09:08:12.730Z,78.03
2023-01-25T09:10:39.803Z,77.81
2023-01-25T09:13:08.635Z,77.84
2023-01-25T09:15:36.006Z,77.93
2023-01-25T09:18:03.330Z,78.15
2023-01-25T09:20:34.233Z,77.75
2023-01-25T09:23:01.976Z,77.85
2023-01-25T09:25:28.962Z,77.87
2023-01-25T09:27:55.962Z,77.70
2023-01-25T09:30:33.593Z,77.97
2023-01-25T09:33:05.990Z,77.69
2023-01-25T09:35:33.970Z,77.86
2023-01-25T09:38:01.027Z,77.52
2023-01-25T09:40:34.348Z,77.60
2023-01-25T09:43:15.396Z,77.44
2023-01-25T09:45:42.748Z,77.42
2023-01-25T09:48:17.243Z,77.62
2023-01-25T09:51:21.463Z,77.55
2023-01-25T09:53:53.672Z,76.97
2023-01-25T09:56:23.894Z,77.36
2023-01-25T09:58:53.679Z,77.28
2023-01-25T10:01:38.769Z,77.39
2023-01-25T10:04:21.478Z,77.39
2023-01-25T10:07:01.221Z,77.20
2023-01-25T10:09:40.056Z,77.04
2023-01-25T10:12:35.845Z,77.04
2023-01-25T10:15:03.317Z,77.17
2023-01-25T10:17:37.859Z,76.93
2023-01-25T10:20:28.727Z,76.85
2023-01-25T10:23:17.811Z,76.95
2023-01-25T10:25:47.206Z,76.88
2023-01-25T10:28:24.732Z,76.87
2023-01-25T10:31:17.022Z,76.74
2023-01-25T10:33:45.883Z,76.62
2023-01-25T10:36:23.303Z,76.36
2023-01-25T10:38:50.422Z,76.44
2023-01-25T10:41:25.121Z,76.42
2023-01-25T10:44:12.071Z,76.42
2023-01-25T10:46:41.303Z,76.20
2023-01-25T10:49:30.123Z,76.47
2023-01-25T10:51:57.578Z,76.15
2023-01-25T10:54:24.863Z,76.18
2023-01-25T10:56:52.685Z,76.16
2023-01-25T10:59:25.279Z,76.19
2023-01-25T11:01:52.480Z,76.13
2023-01-25T11:04:31.563Z,75.92
2023-01-25T11:07:00.002Z,76.01
2023-01-25T11:09:29.844Z,75.94
2023-01-25T11:12:17.879Z,75.94
2023-01-25T11:14:45.461Z,75.84
2023-01-25T11:17:31.953Z,75.82
2023-01-25T11:20:21.240Z,75.80
2023-01-25T11:22:56.089Z,75.85
2023-01-25T11:25:32.307Z,75.79
2023-01-25T11:28:17.218Z,75.65
2023-01-25T11:30:45.455Z,75.80
2023-01-25T11:33:13.443Z,75.54
2023-01-25T11:35:53.841Z,75.51
2023-01-25T11:38:23.321Z,75.69
2023-01-25T11:40:58.082Z,75.77
2023-01-25T11:43:51.646Z,75.74
2023-01-25T11:46:23.265Z,75.49
2023-01-25T11:49:09.064Z,75.34
2023-01-25T11:51:44.192Z,75.36
2023-01-25T11:54:29.345Z,75.21
2023-01-25T11:57:19.367Z,75.40
2023-01-25T11:59:46.301Z,75.20
2023-01-25T12:02:35.097Z,75.28
2023-01-25T12:05:47.182Z,75.07
2023-01-25T12:08:20.052Z,75.12
2023-01-25T12:10:47.002Z,75.15
2023-01-25T12:13:30.288Z,75.08
2023-01-25T12:16:16.079Z,75.04
2023-01-25T12:18:46.084Z,74.92
2023-01-25T12:21:31.956Z,75.03
2023-01-25T12:24:20.740Z,75.08
2023-01-25T12:27:18.586Z,74.87
2023-01-25T12:29:50.327Z,74.87
2023-01-25T12:32:32.546Z,74.88
2023-01-25T12:35:18.283Z,75.06
2023-01-25T12:37:47.364Z,74.91
2023-01-25T12:40:18.528Z,74.85
2023-01-25T12:42:52.762Z,74.74
2023-01-25T12:45:23.641Z,74.76
2023-01-25T12:48:15.643Z,74.64
2023-01-25T12:50:46.857Z,74.76
2023-01-25T12:53:20.408Z,74.70
2023-01-25T12:55:48.846Z,74.63
2023-01-25T12:58:43.603Z,74.72
2023-01-25T13:01:26.883Z,74.63
2023-01-25T13:04:21.262Z,74.68
2023-01-25T13:06:55.926Z,74.55
2023-01-25T13:09:40.191Z,74.73
2023-01-25T13:12:11.555Z,74.61
2023-01-25T13:14:40.361Z,74.54
2023-01-25T13:17:36.556Z,74.54
2023-01-25T13:20:42.083Z,74.40
2023-01-25T13:23:31.749Z,74.75
2023-01-25T13:26:29.485Z,74.58
2023-01-25T13:29:01.222Z,74.54
2023-01-25T13:31:51.682Z,74.73
2023-01-25T13:34:40.504Z,74.42
2023-01-25T13:37:21.441Z,74.64
2023-01-25T13:39:55.062Z,74.29
2023-01-25T13:42:27.095Z,74.40
2023-01-25T13:44:56.420Z,74.53
2023-01-25T13:47:26.730Z,74.41
2023-01-25T13:50:00.236Z,74.49
2023-01-25T13:52:28.427Z,74.45
2023-01-25T13:54:57.541Z,74.44
2023-01-25T13:57:30.261Z,74.29
2023-01-25T14:00:10.728Z,74.23
2023-01-25T14:02:39.706Z,74.43
2023-01-25T14:05:08.126Z,74.26
2023-01-25T14:07:37.133Z,74.27
2023-01-25T14:10:10.864Z,74.68
2023-01-25T14:12:40.566Z,74.47
2023-01-25T14:15:18.002Z,74.45
2023-01-25T14:17:45.302Z,74.27
2023-01-25T14:20:24.611Z,74.36
2023-01-25T14:22:51.962Z,74.27
2023-01-25T14:25:22.662Z,74.40
2023-01-25T14:28:03.075Z,74.46
2023-01-25T14:30:34.946Z,74.35
2023-01-25T14:33:02.575Z,74.43
2023-01-25T14:35:53.812Z,74.60
2023-01-25T14:38:28.470Z,74.27
2023-01-25T14:41:18.300Z,74.26
2023-01-25T14:43:54.122Z,74.40
2023-01-25T14:46:29.449Z,74.56
2023-01-25T14:49:27.924Z,74.38
2023-01-25T14:52:14.615Z,74.38
2023-01-25T14:54:52.368Z,74.38
2023-01-25T14:57:38.670Z,74.64
2023-01-25T15:00:13.704Z,74.23
2023-01-25T15:02:49.746Z,74.44
2023-01-25T15:05:27.544Z,74.49
2023-01-25T15:08:16.664Z,74.33
2023-01-25T15:11:22.092Z,74.50
2023-01-25T15:13:49.177Z,74.61
2023-01-25T15:16:19.149Z,74.43
2023-01-25T15:18:54.036Z,74.17
2023-01-25T15:21:31.577Z,74.06
2023-01-25T15:24:05.063Z,74.56
2023-01-25T15:26:34.843Z,74.69
2023-01-25T15:29:07.948Z,74.76
2023-01-25T15:31:37.425Z,74.47
2023-01-25T15:34:04.638Z,74.50
2023-01-25T15:36:33.140Z,74.88
2023-01-25T15:39:00.346Z,74.29
2023-01-25T15:41:27.485Z,74.92
2023-01-25T15:43:54.583Z,74.52
2023-01-25T15:46:27.665Z,74.85
2023-01-25T15:48:55.029Z,74.48
2023-01-25T15:51:22.296Z,75.07
2023-01-25T15:53:49.604Z,74.61
2023-01-25T15:56:22.241Z,75.37
2023-01-25T15:58:52.009Z,75.16
2023-01-25T16:01:25.262Z,74.81
2023-01-25T16:03:56.469Z,75.09
2023-01-25T16:06:46.493Z,74.66
2023-01-25T16:09:16.712Z,74.81
2023-01-25T16:11:46.376Z,74.88
2023-01-25T16:14:15.388Z,74.59
2023-01-25T16:16:49.568Z,74.84
2023-01-25T16:19:19.649Z,74.74
2023-01-25T16:21:46.805Z,74.83
2023-01-25T16:24:14.226Z,75.26
2023-01-25T16:26:46.333Z,74.88
2023-01-25T16:29:14.069Z,75.00
2023-01-25T16:31:41.296Z,75.36
2023-01-25T16:34:08.563Z,75.25
2023-01-25T16:36:36.282Z,75.58
2023-01-25T16:39:13.702Z,75.40
2023-01-25T16:41:41.051Z,75.34
2023-01-25T16:44:08.182Z,75.42
2023-01-25T16:46:35.745Z,75.69
2023-01-25T16:49:09.867Z,75.72
2023-01-25T16:51:37.813Z,75.37
2023-01-25T16:54:04.902Z,75.54
2023-01-25T16:56:33.481Z,75.82
2023-01-25T16:59:02.727Z,75.51
2023-01-25T17:01:30.302Z,75.92
2023-01-25T17:03:57.499Z,75.89
2023-01-25T17:06:30.404Z,76.14
2023-01-25T17:09:02.155Z,75.52
2023-01-25T17:11:32.395Z,76.12
2023-01-25T17:14:00.463Z,75.79
2023-01-25T17:16:29.949Z,76.02
2023-01-25T17:19:02.444Z,76.17
2023-01-25T17:21:29.831Z,75.72
2023-01-25T17:23:58.401Z,76.01
2023-01-25T17:26:26.240Z,75.80
2023-01-25T17:28:55.655Z,76.01
2023-01-25T17:31:26.553Z,75.97
2023-01-25T17:33:54.552Z,76.48
2023-01-25T17:36:22.003Z,76.17
2023-01-25T17:38:49.400Z,76.29
2023-01-25T17:41:17.525Z,76.05
2023-01-25T17:43:44.642Z,76.48
2023-01-25T17:46:20.714Z,76.21
2023-01-25T17:48:48.514Z,76.03
2023-01-25T17:51:15.726Z,76.10
2023-01-25T17:53:42.902Z,76.47
2023-01-25T17:56:11.934Z,76.48
2023-01-25T17:58:40.383Z,76.26
2023-01-25T18:01:21.998Z,76.55
2023-01-25T18:03:50.495Z,76.21
2023-01-25T18:06:20.367Z,76.51
2023-01-25T18:08:52.003Z,76.53
2023-01-25T18:11:24.932Z,76.50
2023-01-25T18:13:54.871Z,76.40
2023-01-25T18:16:22.952Z,76.47
2023-01-25T18:18:52.130Z,76.71
2023-01-25T18:21:24.488Z,76.85
2023-01-25T18:23:53.961Z,76.58
2023-01-25T18:26:33.466Z,76.63
2023-01-25T18:29:29.301Z,76.30
2023-01-25T18:31:56.728Z,76.90
2023-01-25T18:34:25.410Z,76.58
2023-01-25T18:36:54.047Z,76.74
2023-01-25T18:39:21.479Z,76.50
2023-01-25T18:41:50.591Z,76.47
2023-01-25T18:44:22.525Z,76.52
2023-01-25T18:46:54.110Z,76.60
2023-01-25T18:49:23.293Z,77.03
2023-01-25T18:52:05.226Z,76.89
2023-01-25T18:54:35.783Z,77.01
2023-01-25T18:57:03.687Z,76.88
2023-01-25T18:59:32.540Z,76.87
2023-01-25T19:02:00.523Z,76.78
2023-01-25T19:04:28.376Z,76.76
2023-01-25T19:07:02.607Z,76.88
2023-01-25T19:09:32.184Z,77.16
2023-01-25T19:12:00.158Z,76.75
2023-01-25T19:14:29.859Z,76.70
2023-01-25T19:16:58.531Z,77.33
2023-01-25T19:19:31.805Z,77.29
2023-01-25T19:21:59.633Z,77.31
2023-01-25T19:24:27.247Z,77.28
2023-01-25T19:26:57.202Z,77.49
2023-01-25T19:29:24.096Z,77.15
2023-01-25T19:31:51.046Z,77.22
2023-01-25T19:34:18.276Z,77.41
2023-01-25T19:36:54.026Z,77.62
2023-01-25T19:39:21.363Z,77.10
2023-01-25T19:41:48.662Z,77.41
2023-01-25T19:44:15.779Z,77.10
2023-01-25T19:46:43.210Z,77.28
2023-01-25T19:49:13.308Z,77.49
2023-01-25T19:51:42.807Z,77.29
2023-01-25T19:54:17.417Z,76.99
2023-01-25T19:56:46.917Z,77.52
2023-01-25T19:59:22.664Z,77.45
2023-01-25T20:01:51.172Z,77.76
2023-01-25T20:04:22.331Z,77.17
2023-01-25T20:06:50.746Z,77.18
2023-01-25T20:09:25.405Z,77.59
2023-01-25T20:11:55.641Z,77.53
2023-01-25T20:14:23.835Z,77.34
2023-01-25T20:16:54.193Z,77.79
2023-01-25T20:19:21.427Z,77.43
2023-01-25T20:21:50.151Z,77.25
2023-01-25T20:24:18.357Z,77.64
2023-01-25T20:26:46.601Z,77.14
2023-01-25T20:29:13.855Z,77.33
2023-01-25T20:31:43.476Z,77.54
2023-01-25T20:34:12.262Z,77.32
2023-01-25T20:36:39.434Z,77.62
2023-01-25T20:39:08.467Z,77.49
2023-01-25T20:41:35.907Z,77.68
2023-01-25T20:44:11.374Z,77.29
2023-01-25T20:46:40.356Z,77.28
2023-01-25T20:49:11.259Z,77.67
2023-01-25T20:51:38.555Z,77.58
2023-01-25T20:54:06.488Z,77.32
2023-01-25T20:56:33.949Z,77.48
2023-01-25T20:59:01.702Z,77.36
2023-01-25T21:01:31.021Z,77.10
2023-01-25T21:03:58.981Z,77.63
2023-01-25T21:06:27.779Z,77.64
2023-01-25T21:08:55.249Z,77.68
2023-01-25T21:11:23.526Z,77.19
2023-01-25T21:13:50.763Z,77.53
2023-01-25T21:16:21.791Z,77.43
2023-01-25T21:18:54.690Z,77.57
2023-01-25T21:21:29.215Z,77.45
2023-01-25T21:24:00.121Z,77.51
2023-01-25T21:26:30.055Z,77.82
2023-01-25T21:28:58.859Z,77.75
2023-01-25T21:31:28.203Z,77.42
2023-01-25T21:33:56.170Z,77.44
2023-01-25T21:36:23.382Z,77.42
2023-01-25T21:38:51.938Z,77.87
2023-01-25T21:41:21.072Z,77.83
2023-01-25T21:44:07.536Z,77.33
2023-01-25T21:46:35.657Z,77.38
2023-01-25T21:49:23.580Z,77.96
2023-01-25T21:51:52.605Z,77.75
2023-01-25T21:54:21.687Z,77.49
2023-01-25T21:56:50.036Z,77.96
2023-01-25T21:59:17.259Z,77.93
2023-01-25T22:01:44.545Z,77.47
2023-01-25T22:04:13.252Z,77.61
2023-01-25T22:06:40.653Z,77.87
2023-01-25T22:09:08.524Z,77.41
2023-01-25T22:11:36.232Z,77.85
2023-01-25T22:14:03.269Z,77.74
2023-01-25T22:16:30.754Z,77.77
2023-01-25T22:18:59.997Z,77.53
2023-01-25T22:21:30.935Z,77.84
2023-01-25T22:23:59.277Z,77.97
2023-01-25T22:26:30.907Z,77.89
2023-01-25T22:28:59.414Z,77.39
2023-01-25T22:31:28.830Z,77.82
2023-01-25T22:33:57.027Z,77.95
2023-01-25T22:36:25.685Z,77.54
2023-01-25T22:38:53.050Z,78.03
2023-01-25T22:41:22.496Z,78.16
2023-01-25T22:43:49.701Z,77.87
2023-01-25T22:46:19.736Z,77.55
2023-01-25T22:48:47.252Z,77.85
2023-01-25T22:51:19.757Z,78.05
2023-01-25T22:53:46.945Z,77.69
2023-01-25T22:56:22.727Z,77.96
2023-01-25T22:58:50.321Z,77.75
2023-01-25T23:01:22.998Z,77.95
2023-01-25T23:03:51.064Z,77.98
2023-01-25T23:06:29.561Z,77.92
2023-01-25T23:08:59.916Z,77.77
2023-01-25T23:11:41.453Z,77.72
2023-01-25T23:14:29.936Z,78.13
2023-01-25T23:17:16.946Z,77.80
2023-01-25T23:19:44.127Z,77.93
2023-01-25T23:22:11.122Z,77.81
2023-01-25T23:24:38.175Z,77.89
2023-01-25T23:27:05.142Z,77.80
2023-01-25T23:29:32.422Z,77.70
2023-01-25T23:31:59.566Z,77.86
2023-01-25T23:34:26.665Z,78.03
2023-01-25T23:36:53.552Z,77.85
2023-01-25T23:39:20.463Z,77.71
2023-01-25T23:41:48.190Z,78.24
2023-01-25T23:44:15.267Z,77.79
2023-01-25T23:46:42.272Z,77.69
2023-01-25T23:49:09.384Z,77.61
2023-01-25T23:51:36.390Z,77.80
2023-01-25T23:54:03.450Z,77.68
2023-01-25T23:56:30.487Z,77.77
2023-01-25T23:58:57.634Z,77.79
